createdAt,value
2024-02-08T00:02:19.012Z,98.87
2024-02-08T00:04:48.425Z,99.08
2024-02-08T00:07:16.184Z,99.47
2024-02-08T00:09:43.980Z,99.88
2024-02-08T00:12:13.072Z,99.43
2024-02-08T00:14:40.806Z,99.25
2024-02-08T00:17:08.475Z,99.07
2024-02-08T00:19:36.143Z,99.66
2024-02-08T00:22:04.107Z,99.54
2024-02-08T00:24:38.062Z,99.58
2024-02-08T00:27:05.647Z,99.35
2024-02-08T00:29:33.335Z,99.40
2024-02-08T00:32:01.297Z,99.45
2024-02-08T00:34:29.009Z,99.39
2024-02-08T00:36:56.632Z,99.67
2024-02-08T00:39:24.395Z,99.80
2024-02-08T00:41:52.284Z,99.79
2024-02-08T00:44:20.542Z,99.87
2024-02-08T00:46:53.098Z,99.63
2024-02-08T00:49:22.459Z,99.54
2024-02-08T00:51:50.677Z,99.58
2024-02-08T00:54:18.342Z,99.75
2024-02-08T00:56:46.022Z,99.98
2024-02-08T00:59:16.690Z,100.00
2024-02-08T01:01:44.409Z,99.83
2024-02-08T01:04:12.464Z,99.88
2024-02-08T01:06:42.049Z,100.00
2024-02-08T01:09:09.876Z,100.00
2024-02-08T01:11:37.564Z,99.93
2024-02-08T01:14:05.207Z,99.83
2024-02-08T01:16:34.408Z,100.00
2024-02-08T01:19:04.211Z,100.00
2024-02-08T01:21:32.681Z,100.00
2024-02-08T01:24:00.335Z,100.00
2024-02-08T01:26:27.950Z,100.00
2024-02-08T01:28:55.856Z,100.00
2024-02-08T01:31:23.672Z,100.00
2024-02-08T01:33:51.940Z,100.00
2024-02-08T01:36:19.683Z,100.00
2024-02-08T01:38:47.546Z,100.00
2024-02-08T01:41:15.355Z,100.00
2024-02-08T01:43:43.095Z,100.00
2024-02-08T01:46:11.332Z,100.00
2024-02-08T01:48:42.828Z,100.00
2024-02-08T01:51:14.274Z,100.00
2024-02-08T01:53:44.197Z,100.00
2024-02-08T01:56:13.511Z,100.00
2024-02-08T01:58:45.599Z,100.00
2024-02-08T02:01:19.395Z,100.00
2024-02-08T02:03:47.826Z,100.00
2024-02-08T02:06:16.182Z,100.00
2024-02-08T02:08:59.116Z,100.00
2024-02-08T02:11:42.763Z,100.00
2024-02-08T02:14:11.240Z,100.00
2024-02-08T02:16:40.051Z,100.00
2024-02-08T02:19:07.831Z,100.00
2024-02-08T02:21:36.390Z,100.00
2024-02-08T02:24:04.508Z,100.00
2024-02-08T02:26:33.821Z,100.00
2024-02-08T02:29:04.384Z,100.00
2024-02-08T02:31:33.796Z,100.00
2024-02-08T02:34:01.806Z,100.00
2024-02-08T02:36:29.659Z,100.00
2024-02-08T02:38:57.178Z,100.00
2024-02-08T02:41:29.116Z,100.00
2024-02-08T02:43:57.014Z,100.00
2024-02-08T02:46:24.660Z,100.00
2024-02-08T02:48:52.388Z,100.00
2024-02-08T02:51:20.954Z,100.00
2024-02-08T02:53:48.661Z,100.00
2024-02-08T02:56:17.010Z,100.00
2024-02-08T02:58:44.680Z,100.00
2024-02-08T03:01:13.448Z,100.00
2024-02-08T03:03:42.202Z,100.00
2024-02-08T03:06:16.860Z,100.00
2024-02-08T03:08:47.097Z,100.00
2024-02-08T03:11:15.566Z,100.00
2024-02-08T03:13:47.467Z,100.00
2024-02-08T03:16:18.781Z,100.00
2024-02-08T03:18:50.222Z,100.00
2024-02-08T03:21:23.383Z,100.00
2024-02-08T03:23:51.642Z,100.00
2024-02-08T03:26:19.277Z,100.00
2024-02-08T03:28:47.984Z,100.00
2024-02-08T03:31:16.015Z,100.00
2024-02-08T03:33:46.542Z,100.00
2024-02-08T03:36:14.197Z,100.00
2024-02-08T03:38:41.840Z,100.00
2024-02-08T03:41:09.734Z,100.00
2024-02-08T03:43:37.593Z,100.00
2024-02-08T03:46:08.750Z,100.00
2024-02-08T03:48:38.171Z,100.00
2024-02-08T03:51:05.939Z,100.00
2024-02-08T03:53:38.113Z,100.00
2024-02-08T03:56:07.592Z,100.00
2024-02-08T03:58:37.478Z,100.00
2024-02-08T04:01:05.345Z,100.00
2024-02-08T04:03:54.565Z,100.00
2024-02-08T04:06:37.977Z,100.00
2024-02-08T04:09:18.180Z,100.00
2024-02-08T04:12:04.648Z,100.00
2024-02-08T04:14:52.084Z,100.00
2024-02-08T04:17:38.659Z,100.00
2024-02-08T04:20:29.235Z,100.00
2024-02-08T04:23:23.647Z,100.00
2024-02-08T04:26:09.986Z,100.00
2024-02-08T04:28:56.362Z,100.00
2024-02-08T04:31:43.856Z,100.00
2024-02-08T04:34:30.168Z,100.00
2024-02-08T04:37:16.592Z,100.00
2024-02-08T04:40:03.346Z,100.00
2024-02-08T04:42:50.626Z,100.00
2024-02-08T04:45:36.836Z,100.00
2024-02-08T04:48:23.837Z,100.00
2024-02-08T04:51:10.978Z,100.00
2024-02-08T04:53:45.273Z,100.00
2024-02-08T04:56:13.735Z,100.00
2024-02-08T04:59:07.384Z,100.00
2024-02-08T05:01:39.316Z,100.00
2024-02-08T05:04:08.637Z,100.00
2024-02-08T05:06:37.035Z,100.00
2024-02-08T05:09:04.797Z,100.00
2024-02-08T05:11:37.830Z,100.00
2024-02-08T05:14:06.442Z,100.00
2024-02-08T05:16:38.479Z,100.00
2024-02-08T05:19:06.628Z,100.00
2024-02-08T05:21:43.195Z,100.00
2024-02-08T05:24:15.409Z,100.00
2024-02-08T05:26:44.567Z,100.00
2024-02-08T05:29:21.144Z,100.00
2024-02-08T05:31:52.671Z,100.00
2024-02-08T05:34:23.189Z,100.00
2024-02-08T05:36:53.652Z,100.00
2024-02-08T05:39:26.357Z,100.00
2024-02-08T05:41:59.348Z,100.00
2024-02-08T05:44:34.077Z,100.00
2024-02-08T05:47:10.923Z,100.00
2024-02-08T05:49:53.536Z,100.00
2024-02-08T05:52:21.432Z,100.00
2024-02-08T05:54:53.500Z,100.00
2024-02-08T05:57:22.767Z,100.00
2024-02-08T05:59:54.180Z,100.00
2024-02-08T06:02:26.126Z,100.00
2024-02-08T06:05:11.223Z,100.00
2024-02-08T06:07:39.334Z,100.00
2024-02-08T06:10:23.814Z,100.00
2024-02-08T06:13:00.787Z,100.00
2024-02-08T06:15:35.073Z,100.00
2024-02-08T06:18:06.489Z,100.00
2024-02-08T06:20:35.688Z,100.00
2024-02-08T06:23:24.321Z,100.00
2024-02-08T06:26:12.510Z,100.00
2024-02-08T06:28:48.118Z,100.00
2024-02-08T06:31:19.999Z,100.00
2024-02-08T06:34:08.236Z,100.00
2024-02-08T06:36:41.748Z,100.00
2024-02-08T06:39:25.199Z,100.00
2024-02-08T06:41:54.495Z,100.00
2024-02-08T06:44:39.475Z,100.00
2024-02-08T06:47:19.778Z,100.00
2024-02-08T06:50:06.147Z,100.00
2024-02-08T06:52:52.981Z,100.00
2024-02-08T06:55:39.010Z,100.00
2024-02-08T06:58:25.344Z,100.00
2024-02-08T07:01:11.836Z,100.00
2024-02-08T07:03:59.178Z,100.00
2024-02-08T07:06:45.726Z,100.00
2024-02-08T07:09:31.807Z,100.00
2024-02-08T07:12:17.863Z,100.00
2024-02-08T07:15:03.931Z,100.00
2024-02-08T07:17:50.342Z,100.00
2024-02-08T07:20:37.438Z,100.00
2024-02-08T07:23:23.601Z,100.00
2024-02-08T07:26:10.167Z,100.00
2024-02-08T07:28:56.527Z,100.00
2024-02-08T07:31:43.846Z,100.00
2024-02-08T07:34:30.446Z,100.00
2024-02-08T07:37:16.690Z,100.00
2024-02-08T07:39:48.087Z,100.00
2024-02-08T07:42:21.331Z,100.00
2024-02-08T07:44:56.148Z,100.00
2024-02-08T07:47:28.315Z,100.00
2024-02-08T07:50:11.635Z,100.00
2024-02-08T07:52:47.231Z,100.00
2024-02-08T07:55:21.815Z,100.00
2024-02-08T07:58:00.069Z,100.00
2024-02-08T08:00:43.525Z,100.00
2024-02-08T08:03:24.950Z,100.00
2024-02-08T08:05:58.039Z,100.00
2024-02-08T08:08:29.213Z,100.00
2024-02-08T08:11:03.700Z,100.00
2024-02-08T08:13:51.582Z,100.00
2024-02-08T08:16:32.840Z,100.00
2024-02-08T08:19:11.537Z,100.00
2024-02-08T08:22:05.329Z,100.00
2024-02-08T08:24:53.327Z,100.00
2024-02-08T08:27:35.161Z,100.00
2024-02-08T08:30:07.690Z,100.00
2024-02-08T08:32:36.319Z,100.00
2024-02-08T08:35:25.608Z,100.00
2024-02-08T08:38:11.907Z,100.00
2024-02-08T08:40:40.625Z,100.00
2024-02-08T08:43:11.943Z,100.00
2024-02-08T08:45:43.890Z,100.00
2024-02-08T08:48:13.160Z,100.00
2024-02-08T08:50:41.406Z,100.00
2024-02-08T08:53:18.368Z,100.00
2024-02-08T08:55:51.430Z,100.00
2024-02-08T08:58:23.803Z,100.00
2024-02-08T09:01:00.430Z,100.00
2024-02-08T09:03:28.448Z,100.00
2024-02-08T09:06:00.432Z,100.00
2024-02-08T09:08:43.370Z,100.00
2024-02-08T09:11:15.635Z,100.00
2024-02-08T09:13:53.731Z,100.00
2024-02-08T09:16:26.159Z,100.00
2024-02-08T09:19:01.296Z,100.00
2024-02-08T09:21:34.458Z,100.00
2024-02-08T09:24:07.058Z,100.00
2024-02-08T09:26:55.849Z,100.00
2024-02-08T09:29:31.480Z,100.00
2024-02-08T09:32:17.238Z,100.00
2024-02-08T09:34:47.721Z,100.00
2024-02-08T09:37:16.779Z,100.00
2024-02-08T09:39:59.544Z,100.00
2024-02-08T09:42:28.907Z,100.00
2024-02-08T09:45:17.625Z,100.00
2024-02-08T09:47:56.028Z,100.00
2024-02-08T09:50:38.742Z,100.00
2024-02-08T09:53:19.369Z,100.00
2024-02-08T09:55:57.181Z,100.00
2024-02-08T09:58:38.921Z,100.00
2024-02-08T10:01:31.832Z,100.00
2024-02-08T10:04:07.505Z,100.00
2024-02-08T10:06:43.143Z,100.00
2024-02-08T10:09:33.564Z,100.00
2024-02-08T10:12:08.810Z,100.00
2024-02-08T10:14:47.173Z,100.00
2024-02-08T10:17:42.233Z,100.00
2024-02-08T10:20:22.647Z,100.00
2024-02-08T10:23:10.905Z,100.00
2024-02-08T10:25:58.500Z,100.00
2024-02-08T10:28:27.826Z,100.00
2024-02-08T10:31:13.794Z,100.00
2024-02-08T10:33:49.426Z,100.00
2024-02-08T10:36:21.548Z,100.00
2024-02-08T10:38:58.867Z,100.00
2024-02-08T10:41:37.066Z,100.00
2024-02-08T10:44:06.988Z,100.00
2024-02-08T10:46:35.663Z,100.00
2024-02-08T10:49:10.657Z,100.00
2024-02-08T10:51:44.828Z,100.00
2024-02-08T10:54:17.181Z,100.00
2024-02-08T10:57:06.032Z,100.00
2024-02-08T10:59:49.156Z,100.00
2024-02-08T11:02:39.649Z,100.00
2024-02-08T11:05:36.158Z,100.00
2024-02-08T11:08:13.738Z,100.00
2024-02-08T11:10:46.896Z,100.00
2024-02-08T11:13:23.699Z,100.00
2024-02-08T11:15:55.059Z,100.00
2024-02-08T11:18:36.923Z,100.00
2024-02-08T11:21:06.706Z,100.00
2024-02-08T11:23:47.538Z,100.00
2024-02-08T11:26:19.941Z,100.00
2024-02-08T11:29:19.994Z,100.00
2024-02-08T11:31:48.038Z,100.00
2024-02-08T11:34:25.518Z,100.00
2024-02-08T11:36:53.807Z,100.00
2024-02-08T11:39:30.153Z,100.00
2024-02-08T11:42:01.870Z,100.00
2024-02-08T11:47:40.017Z,100.00
2024-02-08T11:50:10.579Z,100.00
2024-02-08T11:52:40.373Z,100.00
2024-02-08T11:55:29.810Z,100.00
2024-02-08T11:57:58.713Z,100.00
2024-02-08T12:00:27.835Z,100.00
2024-02-08T12:03:03.118Z,100.00
2024-02-08T12:05:31.838Z,100.00
2024-02-08T12:08:11.487Z,100.00
2024-02-08T12:10:43.124Z,100.00
2024-02-08T12:13:15.211Z,100.00
2024-02-08T12:15:57.447Z,100.00
2024-02-08T12:18:29.981Z,100.00
2024-02-08T12:21:02.805Z,100.00
2024-02-08T12:23:41.833Z,100.00
2024-02-08T12:26:13.693Z,100.00
2024-02-08T12:28:45.334Z,100.00
2024-02-08T12:31:19.785Z,100.00
2024-02-08T12:33:53.500Z,100.00
2024-02-08T12:36:25.472Z,100.00
2024-02-08T12:38:59.438Z,100.00
2024-02-08T12:41:30.412Z,100.00
2024-02-08T12:43:58.498Z,100.00
2024-02-08T12:46:28.719Z,100.00
2024-02-08T12:48:56.768Z,100.00
2024-02-08T12:51:24.863Z,100.00
2024-02-08T12:53:58.405Z,100.00
2024-02-08T12:56:26.523Z,100.00
2024-02-08T12:59:02.314Z,100.00
2024-02-08T13:01:42.892Z,100.00
2024-02-08T13:04:19.152Z,100.00
2024-02-08T13:06:50.628Z,100.00
2024-02-08T13:09:32.019Z,100.00
2024-02-08T13:12:18.834Z,100.00
2024-02-08T13:14:49.484Z,100.00
2024-02-08T13:17:22.512Z,100.00
2024-02-08T13:19:58.606Z,100.00
2024-02-08T13:22:33.390Z,100.00
2024-02-08T13:25:01.124Z,100.00
2024-02-08T13:27:30.623Z,100.00
2024-02-08T13:30:01.509Z,100.00
2024-02-08T13:32:31.140Z,100.00
2024-02-08T13:35:04.149Z,100.00
2024-02-08T13:37:36.320Z,100.00
2024-02-08T13:40:05.513Z,100.00
2024-02-08T13:42:47.442Z,100.00
2024-02-08T13:45:27.098Z,100.00
2024-02-08T13:47:59.386Z,100.00
2024-02-08T13:50:32.994Z,100.00
2024-02-08T13:53:07.347Z,100.00
2024-02-08T13:55:46.322Z,100.00
2024-02-08T13:58:29.808Z,100.00
2024-02-08T14:00:59.552Z,100.00
2024-02-08T14:03:31.239Z,100.00
2024-02-08T14:06:01.956Z,100.00
2024-02-08T14:08:31.853Z,100.00
2024-02-08T14:11:00.402Z,100.00
2024-02-08T14:13:36.479Z,100.00
2024-02-08T14:16:17.761Z,100.00
2024-02-08T14:18:56.098Z,100.00
2024-02-08T14:21:27.902Z,100.00
2024-02-08T14:24:02.494Z,100.00
2024-02-08T14:26:44.771Z,100.00
2024-02-08T14:29:14.236Z,100.00
2024-02-08T14:31:42.927Z,100.00
2024-02-08T14:34:12.579Z,100.00
2024-02-08T14:36:48.172Z,100.00
2024-02-08T14:39:30.871Z,100.00
2024-02-08T14:42:12.001Z,100.00
2024-02-08T14:44:45.975Z,100.00
2024-02-08T14:47:23.092Z,100.00
2024-02-08T14:50:22.820Z,100.00
2024-02-08T14:52:51.108Z,100.00
2024-02-08T14:55:22.655Z,100.00
2024-02-08T14:57:53.910Z,100.00
2024-02-08T15:00:34.303Z,100.00
2024-02-08T15:03:10.108Z,100.00
2024-02-08T15:05:50.147Z,100.00
2024-02-08T15:08:24.452Z,100.00
2024-02-08T15:11:27.278Z,100.00
2024-02-08T15:13:56.541Z,100.00
2024-02-08T15:16:31.595Z,100.00
2024-02-08T15:18:59.869Z,100.00
2024-02-08T15:21:36.804Z,100.00
2024-02-08T15:24:13.985Z,100.00
2024-02-08T15:26:51.449Z,100.00
2024-02-08T15:29:39.589Z,100.00
2024-02-08T15:32:18.299Z,100.00
2024-02-08T15:35:00.697Z,100.00
2024-02-08T15:37:30.300Z,100.00
2024-02-08T15:40:12.432Z,100.00
2024-02-08T15:42:44.226Z,100.00
2024-02-08T15:45:17.595Z,100.00
2024-02-08T15:48:05.411Z,100.00
2024-02-08T15:50:47.019Z,100.00
2024-02-08T15:53:19.127Z,100.00
2024-02-08T15:55:51.182Z,100.00
2024-02-08T15:58:20.670Z,100.00
2024-02-08T16:01:08.731Z,100.00
2024-02-08T16:03:41.476Z,100.00
2024-02-08T16:06:29.992Z,100.00
2024-02-08T16:09:01.278Z,100.00
2024-02-08T16:11:35.206Z,100.00
2024-02-08T16:14:16.747Z,100.00
2024-02-08T16:17:08.123Z,100.00
2024-02-08T16:19:52.769Z,100.00
2024-02-08T16:22:20.746Z,100.00
2024-02-08T16:24:50.727Z,100.00
2024-02-08T16:27:20.719Z,100.00
2024-02-08T16:30:09.177Z,100.00
2024-02-08T16:32:40.671Z,100.00
2024-02-08T16:35:28.861Z,100.00
2024-02-08T16:38:08.972Z,100.00
2024-02-08T16:40:53.394Z,100.00
2024-02-08T16:43:29.070Z,100.00
2024-02-08T16:46:19.383Z,100.00
2024-02-08T16:48:48.573Z,100.00
2024-02-08T16:51:26.650Z,100.00
2024-02-08T16:54:03.096Z,100.00
2024-02-08T16:56:40.845Z,100.00
2024-02-08T16:59:16.713Z,100.00
2024-02-08T17:02:03.686Z,100.00
2024-02-08T17:04:49.198Z,100.00
2024-02-08T17:07:40.767Z,100.00
2024-02-08T17:10:10.067Z,100.00
2024-02-08T17:12:58.304Z,100.00
2024-02-08T17:15:29.293Z,100.00
2024-02-08T17:18:11.368Z,100.00
2024-02-08T17:21:06.461Z,100.00
2024-02-08T17:23:56.680Z,100.00
2024-02-08T17:26:36.720Z,100.00
2024-02-08T17:29:30.125Z,100.00
2024-02-08T17:31:58.001Z,100.00
2024-02-08T17:34:28.460Z,100.00
2024-02-08T17:36:56.538Z,100.00
2024-02-08T17:39:41.416Z,100.00
2024-02-08T17:42:10.450Z,100.00
2024-02-08T17:44:42.419Z,100.00
2024-02-08T17:47:11.342Z,100.00
2024-02-08T17:49:39.102Z,100.00
2024-02-08T17:52:08.535Z,100.00
2024-02-08T17:54:53.487Z,100.00
2024-02-08T17:57:25.043Z,100.00
2024-02-08T17:59:59.965Z,100.00
2024-02-08T18:02:33.432Z,100.00
2024-02-08T18:05:04.556Z,100.00
2024-02-08T18:07:37.878Z,100.00
2024-02-08T18:10:18.492Z,100.00
2024-02-08T18:12:53.320Z,100.00
2024-02-08T18:15:26.242Z,100.00
2024-02-08T18:17:58.134Z,100.00
2024-02-08T18:20:31.240Z,100.00
2024-02-08T18:23:03.446Z,100.00
2024-02-08T18:25:31.927Z,100.00
2024-02-08T18:28:07.076Z,100.00
2024-02-08T18:30:36.822Z,100.00
2024-02-08T18:33:06.014Z,100.00
2024-02-08T18:35:35.505Z,100.00
2024-02-08T18:38:09.867Z,100.00
2024-02-08T18:40:39.291Z,100.00
2024-02-08T18:43:07.962Z,100.00
2024-02-08T18:45:38.208Z,100.00
2024-02-08T18:48:12.197Z,100.00
2024-02-08T18:50:44.418Z,100.00
2024-02-08T18:53:14.008Z,100.00
2024-02-08T18:55:52.318Z,100.00
2024-02-08T18:58:22.716Z,100.00
2024-02-08T19:00:51.535Z,100.00
2024-02-08T19:03:21.695Z,100.00
2024-02-08T19:05:50.958Z,100.00
2024-02-08T19:08:20.123Z,100.00
2024-02-08T19:10:59.747Z,100.00
2024-02-08T19:13:36.538Z,100.00
2024-02-08T19:16:13.971Z,100.00
2024-02-08T19:18:46.600Z,100.00
2024-02-08T19:21:30.324Z,100.00
2024-02-08T19:24:03.592Z,100.00
2024-02-08T19:26:33.672Z,100.00
2024-02-08T19:29:07.922Z,100.00
2024-02-08T19:31:42.543Z,100.00
2024-02-08T19:34:20.149Z,100.00
2024-02-08T19:36:59.637Z,100.00
2024-02-08T19:39:30.184Z,100.00
2024-02-08T19:42:02.333Z,100.00
2024-02-08T19:44:35.876Z,100.00
2024-02-08T19:47:22.142Z,100.00
2024-02-08T19:50:02.967Z,100.00
2024-02-08T19:52:35.945Z,100.00
2024-02-08T19:55:04.590Z,100.00
2024-02-08T19:57:40.300Z,100.00
2024-02-08T20:00:18.641Z,100.00
2024-02-08T20:02:48.032Z,100.00
2024-02-08T20:05:15.951Z,100.00
2024-02-08T20:07:45.521Z,100.00
2024-02-08T20:10:13.658Z,100.00
2024-02-08T20:12:45.671Z,100.00
2024-02-08T20:15:18.184Z,100.00
2024-02-08T20:17:50.987Z,100.00
2024-02-08T20:20:20.377Z,100.00
2024-02-08T20:22:55.042Z,100.00
2024-02-08T20:25:29.780Z,100.00
2024-02-08T20:27:59.941Z,100.00
2024-02-08T20:30:29.697Z,100.00
2024-02-08T20:33:00.640Z,100.00
2024-02-08T20:35:28.561Z,100.00
2024-02-08T20:37:59.629Z,100.00
2024-02-08T20:40:27.486Z,100.00
2024-02-08T20:42:55.271Z,100.00
2024-02-08T20:45:27.826Z,100.00
2024-02-08T20:47:55.673Z,100.00
2024-02-08T20:50:23.716Z,100.00
2024-02-08T20:52:51.398Z,100.00
2024-02-08T20:55:25.470Z,100.00
2024-02-08T20:57:54.372Z,100.00
2024-02-08T21:00:23.831Z,100.00
2024-02-08T21:02:54.628Z,100.00
2024-02-08T21:05:24.612Z,100.00
2024-02-08T21:07:52.292Z,100.00
2024-02-08T21:10:26.865Z,100.00
2024-02-08T21:12:56.664Z,100.00
2024-02-08T21:15:27.115Z,100.00
2024-02-08T21:17:55.346Z,100.00
2024-02-08T21:20:23.877Z,100.00
2024-02-08T21:22:51.961Z,100.00
2024-02-08T21:25:21.190Z,100.00
2024-02-08T21:27:53.990Z,100.00
2024-02-08T21:30:22.316Z,100.00
2024-02-08T21:32:50.507Z,100.00
2024-02-08T21:35:19.507Z,100.00
2024-02-08T21:37:47.326Z,100.00
2024-02-08T21:40:15.555Z,100.00
2024-02-08T21:42:45.721Z,100.00
2024-02-08T21:45:14.237Z,100.00
2024-02-08T21:47:42.448Z,100.00
2024-02-08T21:50:11.455Z,100.00
2024-02-08T21:52:40.489Z,100.00
2024-02-08T21:55:09.186Z,100.00
2024-02-08T21:57:36.989Z,100.00
2024-02-08T22:00:12.466Z,100.00
2024-02-08T22:02:41.654Z,100.00
2024-02-08T22:05:11.223Z,100.00
2024-02-08T22:07:39.987Z,100.00
2024-02-08T22:10:13.046Z,100.00
2024-02-08T22:12:46.297Z,100.00
2024-02-08T22:15:19.918Z,100.00
2024-02-08T22:17:54.893Z,100.00
2024-02-08T22:20:23.315Z,100.00
2024-02-08T22:22:52.346Z,100.00
2024-02-08T22:25:20.011Z,100.00
2024-02-08T22:27:48.211Z,100.00
2024-02-08T22:30:16.759Z,100.00
2024-02-08T22:32:48.042Z,100.00
2024-02-08T22:35:16.903Z,100.00
2024-02-08T22:37:49.646Z,100.00
2024-02-08T22:40:20.159Z,100.00
2024-02-08T22:42:49.039Z,100.00
2024-02-08T22:45:19.369Z,100.00
2024-02-08T22:47:47.077Z,100.00
2024-02-08T22:50:16.883Z,100.00
2024-02-08T22:52:47.610Z,100.00
2024-02-08T22:55:23.006Z,100.00
2024-02-08T22:58:01.754Z,100.00
2024-02-08T23:00:29.996Z,100.00
2024-02-08T23:03:09.337Z,100.00
2024-02-08T23:05:41.908Z,100.00
2024-02-08T23:08:16.167Z,100.00
2024-02-08T23:10:44.883Z,100.00
2024-02-08T23:13:12.743Z,100.00
2024-02-08T23:15:47.463Z,100.00
2024-02-08T23:18:20.272Z,100.00
2024-02-08T23:20:51.691Z,100.00
2024-02-08T23:23:21.106Z,100.00
2024-02-08T23:25:49.528Z,100.00
2024-02-08T23:28:21.428Z,100.00
2024-02-08T23:30:49.464Z,100.00
2024-02-08T23:33:19.493Z,100.00
2024-02-08T23:35:47.388Z,100.00
2024-02-08T23:38:20.124Z,100.00
2024-02-08T23:40:49.072Z,100.00
2024-02-08T23:43:17.303Z,100.00
2024-02-08T23:45:47.808Z,100.00
2024-02-08T23:48:15.992Z,100.00
2024-02-08T23:50:47.574Z,100.00
2024-02-08T23:53:15.340Z,100.00
2024-02-08T23:55:43.420Z,100.00
2024-02-08T23:58:12.286Z,100.00
